sensor_id;sensor_type;location;lat;lon;timestamp;pressure;altitude;pressure_sealevel;temperature;humidity
64076;BME280;50327;51.328;12.324;2023-01-29T00:01:15;53211.63;;;-144.47;76.40
64076;BME280;50327;51.328;12.324;2023-01-29T00:03:40;53193.75;;;-144.47;76.70
64076;BME280;50327;51.328;12.324;2023-01-29T00:08:36;53213.63;;;-144.47;77.06
64076;BME280;50327;51.328;12.324;2023-01-29T00:11:06;53221.56;;;-144.47;77.14
64076;BME280;50327;51.328;12.324;2023-01-29T00:13:32;53229.50;;;-144.47;77.48
64076;BME280;50327;51.328;12.324;2023-01-29T00:16:01;53233.47;;;-144.47;77.75
64076;BME280;50327;51.328;12.324;2023-01-29T00:18:27;53241.44;;;-144.47;77.69
64076;BME280;50327;51.328;12.324;2023-01-29T00:20:53;53217.59;;;-144.47;77.73
64076;BME280;50327;51.328;12.324;2023-01-29T00:23:19;53225.53;;;-144.47;78.14
64076;BME280;50327;51.328;12.324;2023-01-29T00:25:44;53241.44;;;-144.47;78.19
64076;BME280;50327;51.328;12.324;2023-01-29T00:28:11;53199.72;;;-144.47;78.42
64076;BME280;50327;51.328;12.324;2023-01-29T00:30:37;53227.53;;;-144.47;78.53
64076;BME280;50327;51.328;12.324;2023-01-29T00:33:03;53223.56;;;-144.47;78.56
64076;BME280;50327;51.328;12.324;2023-01-29T00:35:29;53197.72;;;-144.47;78.69
64076;BME280;50327;51.328;12.324;2023-01-29T00:37:55;53249.38;;;-144.47;78.99
64076;BME280;50327;51.328;12.324;2023-01-29T00:40:21;53215.59;;;-144.47;79.09
64076;BME280;50327;51.328;12.324;2023-01-29T00:42:47;53231.50;;;-144.47;79.19
64076;BME280;50327;51.328;12.324;2023-01-29T00:45:31;53221.56;;;-144.47;79.39
64076;BME280;50327;51.328;12.324;2023-01-29T00:47:57;53251.34;;;-144.47;79.26
64076;BME280;50327;51.328;12.324;2023-01-29T00:50:22;53243.41;;;-144.47;79.58
64076;BME280;50327;51.328;12.324;2023-01-29T00:52:47;53215.59;;;-144.47;79.85
64076;BME280;50327;51.328;12.324;2023-01-29T00:55:15;53219.56;;;-144.47;80.09
64076;BME280;50327;51.328;12.324;2023-01-29T00:57:41;53233.47;;;-144.47;80.18
64076;BME280;50327;51.328;12.324;2023-01-29T01:00:10;53251.34;;;-144.47;80.23
64076;BME280;50327;51.328;12.324;2023-01-29T01:02:36;53219.56;;;-144.47;80.56
64076;BME280;50327;51.328;12.324;2023-01-29T01:05:20;53257.31;;;-144.47;80.43
64076;BME280;50327;51.328;12.324;2023-01-29T01:07:50;53235.47;;;-144.47;80.78
64076;BME280;50327;51.328;12.324;2023-01-29T01:10:19;53251.34;;;-144.47;80.87
64076;BME280;50327;51.328;12.324;2023-01-29T01:12:45;53237.44;;;-144.47;80.93
64076;BME280;50327;51.328;12.324;2023-01-29T01:15:10;53263.28;;;-144.47;80.88
64076;BME280;50327;51.328;12.324;2023-01-29T01:17:36;53221.56;;;-144.47;81.03
64076;BME280;50327;51.328;12.324;2023-01-29T01:20:02;53221.56;;;-144.47;80.73
64076;BME280;50327;51.328;12.324;2023-01-29T01:22:27;53215.59;;;-144.47;80.60
64076;BME280;50327;51.328;12.324;2023-01-29T01:24:53;53229.50;;;-144.47;80.85
64076;BME280;50327;51.328;12.324;2023-01-29T01:27:18;53241.44;;;-144.47;80.99
64076;BME280;50327;51.328;12.324;2023-01-29T01:29:45;53237.44;;;-144.47;81.18
64076;BME280;50327;51.328;12.324;2023-01-29T01:32:11;53229.50;;;-144.47;81.87
64076;BME280;50327;51.328;12.324;2023-01-29T01:34:36;53237.44;;;-144.47;82.10
64076;BME280;50327;51.328;12.324;2023-01-29T01:37:02;53235.47;;;-144.47;82.60
64076;BME280;50327;51.328;12.324;2023-01-29T01:39:28;53237.44;;;-144.47;82.82
64076;BME280;50327;51.328;12.324;2023-01-29T01:41:53;53213.63;;;-144.47;83.07
64076;BME280;50327;51.328;12.324;2023-01-29T01:44:48;53221.56;;;-144.47;83.29
64076;BME280;50327;51.328;12.324;2023-01-29T01:47:16;53221.56;;;-144.47;83.39
64076;BME280;50327;51.328;12.324;2023-01-29T01:49:44;53253.34;;;-144.47;83.48
64076;BME280;50327;51.328;12.324;2023-01-29T01:52:12;53251.34;;;-144.47;83.64
64076;BME280;50327;51.328;12.324;2023-01-29T01:54:40;53257.31;;;-144.47;83.54
64076;BME280;50327;51.328;12.324;2023-01-29T01:57:09;53263.28;;;-144.47;83.18
64076;BME280;50327;51.328;12.324;2023-01-29T01:59:42;53265.25;;;-144.47;83.05
64076;BME280;50327;51.328;12.324;2023-01-29T02:02:10;53245.41;;;-144.47;83.09
64076;BME280;50327;51.328;12.324;2023-01-29T02:04:55;53261.28;;;-144.47;82.92
64076;BME280;50327;51.328;12.324;2023-01-29T02:07:41;53251.34;;;-144.47;83.01
64076;BME280;50327;51.328;12.324;2023-01-29T02:10:29;53251.34;;;-144.47;83.06
64076;BME280;50327;51.328;12.324;2023-01-29T02:12:56;53279.16;;;-144.47;83.24
64076;BME280;50327;51.328;12.324;2023-01-29T02:15:21;53241.44;;;-144.47;83.29
64076;BME280;50327;51.328;12.324;2023-01-29T02:17:46;53221.56;;;-144.47;83.38
64076;BME280;50327;51.328;12.324;2023-01-29T02:20:38;53239.44;;;-144.47;83.17
64076;BME280;50327;51.328;12.324;2023-01-29T02:33:55;53221.56;;;-144.47;83.33
64076;BME280;50327;51.328;12.324;2023-01-29T02:41:50;53267.25;;;-144.47;83.66
64076;BME280;50327;51.328;12.324;2023-01-29T02:44:41;53275.19;;;-144.47;84.10
64076;BME280;50327;51.328;12.324;2023-01-29T02:52:30;53273.22;;;-144.47;84.12
64076;BME280;50327;51.328;12.324;2023-01-29T02:55:12;53247.38;;;-144.47;83.92
64076;BME280;50327;51.328;12.324;2023-01-29T02:57:43;53241.44;;;-144.47;84.04
64076;BME280;50327;51.328;12.324;2023-01-29T03:00:14;53259.31;;;-144.47;84.20
64076;BME280;50327;51.328;12.324;2023-01-29T03:03:00;53265.25;;;-144.47;84.56
64076;BME280;50327;51.328;12.324;2023-01-29T03:05:33;53245.41;;;-144.47;84.55
64076;BME280;50327;51.328;12.324;2023-01-29T03:08:05;53253.34;;;-144.47;84.91
64076;BME280;50327;51.328;12.324;2023-01-29T03:10:39;53267.25;;;-144.47;85.07
64076;BME280;50327;51.328;12.324;2023-01-29T03:15:48;53261.28;;;-144.47;85.14
64076;BME280;50327;51.328;12.324;2023-01-29T03:18:23;53243.41;;;-144.47;85.70
64076;BME280;50327;51.328;12.324;2023-01-29T03:20:56;53269.22;;;-144.47;86.06
64076;BME280;50327;51.328;12.324;2023-01-29T03:23:27;53253.34;;;-144.47;86.31
64076;BME280;50327;51.328;12.324;2023-01-29T03:26:15;53253.34;;;-144.47;86.62
64076;BME280;50327;51.328;12.324;2023-01-29T03:29:02;53283.13;;;-144.47;86.92
64076;BME280;50327;51.328;12.324;2023-01-29T03:31:48;53297.03;;;-144.47;87.24
64076;BME280;50327;51.328;12.324;2023-01-29T03:34:44;53253.34;;;-144.47;87.71
64076;BME280;50327;51.328;12.324;2023-01-29T03:37:20;53279.16;;;-144.47;87.68
64076;BME280;50327;51.328;12.324;2023-01-29T03:39:48;53267.25;;;-144.47;87.94
64076;BME280;50327;51.328;12.324;2023-01-29T03:50:11;53283.13;;;-144.47;88.37
64076;BME280;50327;51.328;12.324;2023-01-29T03:58:35;53257.31;;;-144.47;88.16
64076;BME280;50327;51.328;12.324;2023-01-29T04:01:09;53249.38;;;-144.47;88.19
64076;BME280;50327;51.328;12.324;2023-01-29T04:03:38;53269.22;;;-144.47;88.29
64076;BME280;50327;51.328;12.324;2023-01-29T04:06:16;53269.22;;;-144.47;88.29
64076;BME280;50327;51.328;12.324;2023-01-29T04:08:50;53265.25;;;-144.47;88.74
64076;BME280;50327;51.328;12.324;2023-01-29T04:11:19;53285.13;;;-144.47;88.21
64076;BME280;50327;51.328;12.324;2023-01-29T04:13:46;53273.22;;;-144.47;88.29
64076;BME280;50327;51.328;12.324;2023-01-29T04:16:17;53267.25;;;-144.47;88.18
64076;BME280;50327;51.328;12.324;2023-01-29T04:18:45;53271.22;;;-144.47;87.97
64076;BME280;50327;51.328;12.324;2023-01-29T04:21:11;53279.16;;;-144.47;87.98
64076;BME280;50327;51.328;12.324;2023-01-29T04:23:37;53253.34;;;-144.47;88.04
64076;BME280;50327;51.328;12.324;2023-01-29T04:26:44;53257.31;;;-144.47;88.19
64076;BME280;50327;51.328;12.324;2023-01-29T04:34:28;53285.13;;;-144.47;88.21
64076;BME280;50327;51.328;12.324;2023-01-29T04:37:09;53249.38;;;-144.47;88.07
64076;BME280;50327;51.328;12.324;2023-01-29T04:39:46;53275.19;;;-144.47;87.57
64076;BME280;50327;51.328;12.324;2023-01-29T04:42:29;53287.13;;;-144.47;87.88
64076;BME280;50327;51.328;12.324;2023-01-29T04:45:06;53267.25;;;-144.47;87.69
64076;BME280;50327;51.328;12.324;2023-01-29T04:50:25;53275.19;;;-144.47;87.34
64076;BME280;50327;51.328;12.324;2023-01-29T04:55:44;53233.47;;;-144.47;86.93
64076;BME280;50327;51.328;12.324;2023-01-29T05:00:48;53251.34;;;-144.47;86.60
64076;BME280;50327;51.328;12.324;2023-01-29T05:03:18;53259.31;;;-144.47;86.37
64076;BME280;50327;51.328;12.324;2023-01-29T05:05:47;53263.28;;;-144.47;86.44
64076;BME280;50327;51.328;12.324;2023-01-29T05:08:16;53283.13;;;-144.47;86.18
64076;BME280;50327;51.328;12.324;2023-01-29T05:10:42;53281.16;;;-144.47;85.83
64076;BME280;50327;51.328;12.324;2023-01-29T05:13:11;53275.19;;;-144.47;85.80
64076;BME280;50327;51.328;12.324;2023-01-29T05:15:48;53277.19;;;-144.47;85.55
64076;BME280;50327;51.328;12.324;2023-01-29T05:18:14;53279.16;;;-144.47;85.05
64076;BME280;50327;51.328;12.324;2023-01-29T05:20:42;53245.41;;;-144.47;84.82
64076;BME280;50327;51.328;12.324;2023-01-29T05:23:19;53231.50;;;-144.47;84.38
64076;BME280;50327;51.328;12.324;2023-01-29T05:25:45;53229.50;;;-144.47;84.33
64076;BME280;50327;51.328;12.324;2023-01-29T05:28:11;53247.38;;;-144.47;84.23
64076;BME280;50327;51.328;12.324;2023-01-29T05:30:45;53277.19;;;-144.47;83.94
64076;BME280;50327;51.328;12.324;2023-01-29T05:33:14;53237.44;;;-144.47;83.92
64076;BME280;50327;51.328;12.324;2023-01-29T05:35:40;53243.41;;;-144.47;83.82
64076;BME280;50327;51.328;12.324;2023-01-29T05:38:05;53225.53;;;-144.47;84.07
64076;BME280;50327;51.328;12.324;2023-01-29T05:40:31;53285.13;;;-144.47;84.12
64076;BME280;50327;51.328;12.324;2023-01-29T05:42:57;53259.31;;;-144.47;83.75
64076;BME280;50327;51.328;12.324;2023-01-29T05:45:22;53221.56;;;-144.47;83.69
64076;BME280;50327;51.328;12.324;2023-01-29T05:47:47;53235.47;;;-144.47;83.89
64076;BME280;50327;51.328;12.324;2023-01-29T05:50:13;53249.38;;;-144.47;84.06
64076;BME280;50327;51.328;12.324;2023-01-29T05:52:39;53245.41;;;-144.47;83.96
64076;BME280;50327;51.328;12.324;2023-01-29T05:55:06;53239.44;;;-144.47;84.05
64076;BME280;50327;51.328;12.324;2023-01-29T05:57:32;53177.88;;;-144.47;83.96
64076;BME280;50327;51.328;12.324;2023-01-29T05:59:57;53261.28;;;-144.47;84.09
64076;BME280;50327;51.328;12.324;2023-01-29T06:02:22;53227.53;;;-144.47;84.13
64076;BME280;50327;51.328;12.324;2023-01-29T06:04:52;53225.53;;;-144.47;84.03
64076;BME280;50327;51.328;12.324;2023-01-29T06:07:18;53221.56;;;-144.47;83.81
64076;BME280;50327;51.328;12.324;2023-01-29T06:09:43;53223.56;;;-144.47;83.71
64076;BME280;50327;51.328;12.324;2023-01-29T06:12:09;53217.59;;;-144.47;83.88
64076;BME280;50327;51.328;12.324;2023-01-29T06:14:43;53229.50;;;-144.47;83.69
64076;BME280;50327;51.328;12.324;2023-01-29T06:17:11;53225.53;;;-144.47;83.89
64076;BME280;50327;51.328;12.324;2023-01-29T06:19:37;53265.25;;;-144.47;83.64
64076;BME280;50327;51.328;12.324;2023-01-29T06:22:13;53211.63;;;-144.47;83.76
64076;BME280;50327;51.328;12.324;2023-01-29T06:24:43;53211.63;;;-144.47;83.33
64076;BME280;50327;51.328;12.324;2023-01-29T06:27:12;53219.56;;;-144.47;83.58
64076;BME280;50327;51.328;12.324;2023-01-29T06:29:43;53223.56;;;-144.47;83.42
64076;BME280;50327;51.328;12.324;2023-01-29T06:32:21;53247.38;;;-144.47;83.61
64076;BME280;50327;51.328;12.324;2023-01-29T06:34:49;53217.59;;;-144.47;83.25
64076;BME280;50327;51.328;12.324;2023-01-29T06:37:20;53209.66;;;-144.47;83.52
64076;BME280;50327;51.328;12.324;2023-01-29T06:40:03;53231.50;;;-144.47;82.97
64076;BME280;50327;51.328;12.324;2023-01-29T06:42:39;53215.59;;;-144.47;82.80
64076;BME280;50327;51.328;12.324;2023-01-29T06:45:14;53237.44;;;-144.47;82.82
64076;BME280;50327;51.328;12.324;2023-01-29T06:47:50;53209.66;;;-144.47;82.67
64076;BME280;50327;51.328;12.324;2023-01-29T06:50:16;53235.47;;;-144.47;82.33
64076;BME280;50327;51.328;12.324;2023-01-29T06:52:50;53257.31;;;-144.47;82.56
64076;BME280;50327;51.328;12.324;2023-01-29T06:55:19;53227.53;;;-144.47;82.43
64076;BME280;50327;51.328;12.324;2023-01-29T06:57:47;53217.59;;;-144.47;82.34
64076;BME280;50327;51.328;12.324;2023-01-29T07:00:34;53227.53;;;-144.47;82.39
64076;BME280;50327;51.328;12.324;2023-01-29T07:03:02;53227.53;;;-144.47;82.32
64076;BME280;50327;51.328;12.324;2023-01-29T07:05:33;53229.50;;;-144.47;82.40
64076;BME280;50327;51.328;12.324;2023-01-29T07:08:04;53223.56;;;-144.47;82.54
64076;BME280;50327;51.328;12.324;2023-01-29T07:13:49;53185.81;;;-144.47;82.67
64076;BME280;50327;51.328;12.324;2023-01-29T07:16:19;53201.69;;;-144.47;82.46
64076;BME280;50327;51.328;12.324;2023-01-29T07:19:09;53239.44;;;-144.47;81.90
64076;BME280;50327;51.328;12.324;2023-01-29T07:24:14;53211.63;;;-144.47;82.42
64076;BME280;50327;51.328;12.324;2023-01-29T07:26:43;53197.72;;;-144.47;82.28
64076;BME280;50327;51.328;12.324;2023-01-29T07:29:09;53227.53;;;-144.47;82.62
64076;BME280;50327;51.328;12.324;2023-01-29T07:31:38;53197.72;;;-144.47;82.40
64076;BME280;50327;51.328;12.324;2023-01-29T07:34:10;53189.78;;;-144.47;82.73
64076;BME280;50327;51.328;12.324;2023-01-29T07:36:41;53219.56;;;-144.47;82.57
64076;BME280;50327;51.328;12.324;2023-01-29T07:39:18;53177.88;;;-144.47;82.07
64076;BME280;50327;51.328;12.324;2023-01-29T07:41:46;53209.66;;;-144.47;82.26
64076;BME280;50327;51.328;12.324;2023-01-29T07:44:12;53191.78;;;-144.47;81.82
64076;BME280;50327;51.328;12.324;2023-01-29T07:46:41;53223.56;;;-144.47;81.90
64076;BME280;50327;51.328;12.324;2023-01-29T07:49:18;53223.56;;;-144.47;81.97
64076;BME280;50327;51.328;12.324;2023-01-29T07:51:46;53221.56;;;-144.47;82.05
64076;BME280;50327;51.328;12.324;2023-01-29T07:54:20;53221.56;;;-144.47;81.86
64076;BME280;50327;51.328;12.324;2023-01-29T07:56:46;53197.72;;;-144.47;81.37
64076;BME280;50327;51.328;12.324;2023-01-29T07:59:14;53189.78;;;-144.47;81.06
64076;BME280;50327;51.328;12.324;2023-01-29T08:01:43;53193.75;;;-144.47;81.06
64076;BME280;50327;51.328;12.324;2023-01-29T08:04:11;53225.53;;;-144.47;81.01
64076;BME280;50327;51.328;12.324;2023-01-29T08:06:39;53193.75;;;-144.47;81.47
64076;BME280;50327;51.328;12.324;2023-01-29T08:09:12;53217.59;;;-144.47;81.17
64076;BME280;50327;51.328;12.324;2023-01-29T08:11:42;53197.72;;;-144.47;80.95
64076;BME280;50327;51.328;12.324;2023-01-29T08:14:13;53205.66;;;-144.47;81.03
64076;BME280;50327;51.328;12.324;2023-01-29T08:16:48;53179.84;;;-144.47;81.19
64076;BME280;50327;51.328;12.324;2023-01-29T08:19:16;53193.75;;;-144.47;80.53
64076;BME280;50327;51.328;12.324;2023-01-29T08:21:47;53177.88;;;-144.47;80.09
64076;BME280;50327;51.328;12.324;2023-01-29T08:24:23;53201.69;;;-144.47;80.53
64076;BME280;50327;51.328;12.324;2023-01-29T08:27:27;53197.72;;;-144.47;80.16
64076;BME280;50327;51.328;12.324;2023-01-29T08:33:07;53203.69;;;-144.47;80.24
64076;BME280;50327;51.328;12.324;2023-01-29T08:35:54;53209.66;;;-144.47;80.46
64076;BME280;50327;51.328;12.324;2023-01-29T08:38:57;53193.75;;;-144.47;80.13
64076;BME280;50327;51.328;12.324;2023-01-29T08:51:49;53197.72;;;-144.47;80.15
64076;BME280;50327;51.328;12.324;2023-01-29T08:54:18;53181.84;;;-144.47;80.22
64076;BME280;50327;51.328;12.324;2023-01-29T08:56:44;53193.75;;;-144.47;80.43
64076;BME280;50327;51.328;12.324;2023-01-29T08:59:09;53175.88;;;-144.47;81.33
64076;BME280;50327;51.328;12.324;2023-01-29T09:01:35;53203.69;;;-144.47;80.93
64076;BME280;50327;51.328;12.324;2023-01-29T09:04:00;53187.78;;;-144.47;81.12
64076;BME280;50327;51.328;12.324;2023-01-29T09:06:26;53201.69;;;-144.47;81.25
64076;BME280;50327;51.328;12.324;2023-01-29T09:08:52;53191.78;;;-144.47;81.20
64076;BME280;50327;51.328;12.324;2023-01-29T09:11:18;53197.72;;;-144.47;81.38
64076;BME280;50327;51.328;12.324;2023-01-29T09:13:43;53175.88;;;-144.47;81.45
64076;BME280;50327;51.328;12.324;2023-01-29T09:16:09;53191.78;;;-144.47;81.46
64076;BME280;50327;51.328;12.324;2023-01-29T09:18:34;53169.91;;;-144.47;81.79
64076;BME280;50327;51.328;12.324;2023-01-29T09:21:00;53193.75;;;-144.47;81.77
64076;BME280;50327;51.328;12.324;2023-01-29T09:23:27;53199.72;;;-144.47;81.61
64076;BME280;50327;51.328;12.324;2023-01-29T09:25:53;53195.75;;;-144.47;81.54
64076;BME280;50327;51.328;12.324;2023-01-29T09:28:18;53142.09;;;-144.47;81.76
64076;BME280;50327;51.328;12.324;2023-01-29T09:30:44;53163.97;;;-144.47;81.16
64076;BME280;50327;51.328;12.324;2023-01-29T09:33:09;53185.81;;;-144.47;81.35
64076;BME280;50327;51.328;12.324;2023-01-29T09:35:35;53185.81;;;-144.47;80.83
64076;BME280;50327;51.328;12.324;2023-01-29T09:38:00;53195.75;;;-144.47;80.89
64076;BME280;50327;51.328;12.324;2023-01-29T09:40:29;53161.97;;;-144.47;80.30
64076;BME280;50327;51.328;12.324;2023-01-29T09:43:01;53160.00;;;-144.47;80.69
64076;BME280;50327;51.328;12.324;2023-01-29T09:45:29;53167.94;;;-144.47;80.34
64076;BME280;50327;51.328;12.324;2023-01-29T09:48:02;53160.00;;;-144.47;80.21
64076;BME280;50327;51.328;12.324;2023-01-29T09:50:49;53169.91;;;-144.47;79.54
64076;BME280;50327;51.328;12.324;2023-01-29T09:53:28;53191.78;;;-144.47;80.02
64076;BME280;50327;51.328;12.324;2023-01-29T09:58:32;53140.13;;;-144.47;79.38
64076;BME280;50327;51.328;12.324;2023-01-29T10:01:18;53152.03;;;-144.47;79.45
64076;BME280;50327;51.328;12.324;2023-01-29T10:12:16;53161.97;;;-144.47;79.75
64076;BME280;50327;51.328;12.324;2023-01-29T10:23:25;53173.88;;;-144.47;78.29
64076;BME280;50327;51.328;12.324;2023-01-29T10:25:50;53160.00;;;-144.47;78.58
64076;BME280;50327;51.328;12.324;2023-01-29T10:28:28;53163.97;;;-144.47;78.19
64076;BME280;50327;51.328;12.324;2023-01-29T10:30:59;53158.00;;;-144.47;77.83
64076;BME280;50327;51.328;12.324;2023-01-29T10:33:38;53142.09;;;-144.47;78.01
64076;BME280;50327;51.328;12.324;2023-01-29T10:36:07;53146.09;;;-144.47;77.84
64076;BME280;50327;51.328;12.324;2023-01-29T10:38:49;53150.06;;;-144.47;77.93
64076;BME280;50327;51.328;12.324;2023-01-29T10:55:55;53136.16;;;-144.47;77.35
64076;BME280;50327;51.328;12.324;2023-01-29T10:58:29;53126.22;;;-144.47;77.09
64076;BME280;50327;51.328;12.324;2023-01-29T11:00:58;53124.22;;;-144.47;77.38
64076;BME280;50327;51.328;12.324;2023-01-29T11:03:26;53140.13;;;-144.47;77.18
64076;BME280;50327;51.328;12.324;2023-01-29T11:08:30;53136.16;;;-144.47;77.05
64076;BME280;50327;51.328;12.324;2023-01-29T11:11:08;53134.16;;;-144.47;76.75
64076;BME280;50327;51.328;12.324;2023-01-29T11:13:56;53126.22;;;-144.47;76.95
64076;BME280;50327;51.328;12.324;2023-01-29T11:16:23;53158.00;;;-144.47;76.35
64076;BME280;50327;51.328;12.324;2023-01-29T11:18:59;53167.94;;;-144.47;76.18
64076;BME280;50327;51.328;12.324;2023-01-29T11:21:27;53142.09;;;-144.47;76.15
64076;BME280;50327;51.328;12.324;2023-01-29T11:24:29;53122.25;;;-144.47;75.78
64076;BME280;50327;51.328;12.324;2023-01-29T11:26:57;53126.22;;;-144.47;75.31
64076;BME280;50327;51.328;12.324;2023-01-29T11:31:52;53140.13;;;-144.47;74.64
64076;BME280;50327;51.328;12.324;2023-01-29T11:34:20;53160.00;;;-144.47;74.79
64076;BME280;50327;51.328;12.324;2023-01-29T11:36:45;53130.19;;;-144.47;74.33
64076;BME280;50327;51.328;12.324;2023-01-29T11:39:14;53118.28;;;-144.47;74.91
64076;BME280;50327;51.328;12.324;2023-01-29T11:41:43;53152.03;;;-144.47;75.22
64076;BME280;50327;51.328;12.324;2023-01-29T11:44:17;53144.09;;;-144.47;75.13
64076;BME280;50327;51.328;12.324;2023-01-29T11:46:43;53156.00;;;-144.47;74.77
64076;BME280;50327;51.328;12.324;2023-01-29T11:49:24;53116.28;;;-144.47;75.33
64076;BME280;50327;51.328;12.324;2023-01-29T11:51:55;53122.25;;;-144.47;74.33
64076;BME280;50327;51.328;12.324;2023-01-29T11:54:25;53148.06;;;-144.47;73.32
64076;BME280;50327;51.328;12.324;2023-01-29T11:56:52;53140.13;;;-144.47;73.28
64076;BME280;50327;51.328;12.324;2023-01-29T11:59:40;53136.16;;;-144.47;73.46
64076;BME280;50327;51.328;12.324;2023-01-29T12:02:31;53118.28;;;-144.47;73.84
64076;BME280;50327;51.328;12.324;2023-01-29T12:05:06;53118.28;;;-144.47;73.47
64076;BME280;50327;51.328;12.324;2023-01-29T12:07:41;53102.38;;;-144.47;72.77
64076;BME280;50327;51.328;12.324;2023-01-29T12:10:34;53116.28;;;-144.47;72.63
64076;BME280;50327;51.328;12.324;2023-01-29T12:15:48;53104.38;;;-144.47;72.92
64076;BME280;50327;51.328;12.324;2023-01-29T12:18:31;53102.38;;;-144.47;72.15
64076;BME280;50327;51.328;12.324;2023-01-29T12:21:03;53100.41;;;-144.47;71.83
64076;BME280;50327;51.328;12.324;2023-01-29T12:31:38;53102.38;;;-144.47;70.77
64076;BME280;50327;51.328;12.324;2023-01-29T12:37:23;53118.28;;;-144.47;71.51
64076;BME280;50327;51.328;12.324;2023-01-29T12:39:53;53114.31;;;-144.47;70.91
64076;BME280;50327;51.328;12.324;2023-01-29T12:42:20;53146.09;;;-144.47;71.33
64076;BME280;50327;51.328;12.324;2023-01-29T12:45:06;53108.34;;;-144.47;71.75
64076;BME280;50327;51.328;12.324;2023-01-29T12:47:51;53120.25;;;-144.47;71.65
64076;BME280;50327;51.328;12.324;2023-01-29T12:50:30;53112.31;;;-144.47;71.30
64076;BME280;50327;51.328;12.324;2023-01-29T12:55:46;53118.28;;;-144.47;70.61
64076;BME280;50327;51.328;12.324;2023-01-29T12:58:21;53112.31;;;-144.47;70.34
64076;BME280;50327;51.328;12.324;2023-01-29T13:00:50;53122.25;;;-144.47;69.87
64076;BME280;50327;51.328;12.324;2023-01-29T13:03:33;53104.38;;;-144.47;70.11
64076;BME280;50327;51.328;12.324;2023-01-29T13:06:11;53102.38;;;-144.47;69.92
64076;BME280;50327;51.328;12.324;2023-01-29T13:08:49;53096.41;;;-144.47;70.13
64076;BME280;50327;51.328;12.324;2023-01-29T13:11:22;53120.25;;;-144.47;70.29
64076;BME280;50327;51.328;12.324;2023-01-29T13:13:50;53128.22;;;-144.47;69.96
64076;BME280;50327;51.328;12.324;2023-01-29T13:16:20;53120.25;;;-144.47;70.09
64076;BME280;50327;51.328;12.324;2023-01-29T13:19:00;53120.25;;;-144.47;70.09
64076;BME280;50327;51.328;12.324;2023-01-29T13:21:34;53108.34;;;-144.47;70.33
64076;BME280;50327;51.328;12.324;2023-01-29T13:24:13;53122.25;;;-144.47;70.20
64076;BME280;50327;51.328;12.324;2023-01-29T13:26:44;53088.47;;;-144.47;70.59
64076;BME280;50327;51.328;12.324;2023-01-29T13:29:21;53112.31;;;-144.47;70.49
64076;BME280;50327;51.328;12.324;2023-01-29T13:31:49;53086.50;;;-144.47;69.74
64076;BME280;50327;51.328;12.324;2023-01-29T13:34:20;53118.28;;;-144.47;70.09
64076;BME280;50327;51.328;12.324;2023-01-29T13:36:51;53102.38;;;-144.47;70.31
64076;BME280;50327;51.328;12.324;2023-01-29T13:39:19;53102.38;;;-144.47;70.41
64076;BME280;50327;51.328;12.324;2023-01-29T13:41:48;53066.63;;;-144.47;70.38
64076;BME280;50327;51.328;12.324;2023-01-29T13:44:36;53078.53;;;-144.47;70.09
64076;BME280;50327;51.328;12.324;2023-01-29T13:47:08;53116.28;;;-144.47;70.79
64076;BME280;50327;51.328;12.324;2023-01-29T13:49:38;53106.34;;;-144.47;70.69
64076;BME280;50327;51.328;12.324;2023-01-29T13:52:33;53106.34;;;-144.47;70.90
64076;BME280;50327;51.328;12.324;2023-01-29T13:55:07;53116.28;;;-144.47;70.64
64076;BME280;50327;51.328;12.324;2023-01-29T14:08:02;53104.38;;;-144.47;71.23
64076;BME280;50327;51.328;12.324;2023-01-29T14:10:32;53104.38;;;-144.47;71.80
64076;BME280;50327;51.328;12.324;2023-01-29T14:18:26;53116.28;;;-144.47;71.61
64076;BME280;50327;51.328;12.324;2023-01-29T14:20:54;53104.38;;;-144.47;71.38
64076;BME280;50327;51.328;12.324;2023-01-29T14:31:57;53128.22;;;-144.47;72.19
64076;BME280;50327;51.328;12.324;2023-01-29T14:34:30;53110.31;;;-144.47;72.32
64076;BME280;50327;51.328;12.324;2023-01-29T14:39:54;53118.28;;;-144.47;72.72
64076;BME280;50327;51.328;12.324;2023-01-29T14:49:55;53120.25;;;-144.47;74.67
64076;BME280;50327;51.328;12.324;2023-01-29T14:52:48;53128.22;;;-144.47;73.75
64076;BME280;50327;51.328;12.324;2023-01-29T14:58:43;53106.34;;;-144.47;74.27
64076;BME280;50327;51.328;12.324;2023-01-29T15:01:28;53124.22;;;-144.47;74.14
64076;BME280;50327;51.328;12.324;2023-01-29T15:06:44;53116.28;;;-144.47;74.71
64076;BME280;50327;51.328;12.324;2023-01-29T15:09:24;53110.31;;;-144.47;75.01
64076;BME280;50327;51.328;12.324;2023-01-29T15:14:35;53150.06;;;-144.47;75.38
64076;BME280;50327;51.328;12.324;2023-01-29T15:19:36;53084.50;;;-144.47;76.03
64076;BME280;50327;51.328;12.324;2023-01-29T15:24:27;53140.13;;;-144.47;76.23
64076;BME280;50327;51.328;12.324;2023-01-29T15:26:53;53128.22;;;-144.47;76.22
64076;BME280;50327;51.328;12.324;2023-01-29T15:29:26;53126.22;;;-144.47;76.49
64076;BME280;50327;51.328;12.324;2023-01-29T15:31:52;53148.06;;;-144.47;76.78
64076;BME280;50327;51.328;12.324;2023-01-29T15:34:18;53146.09;;;-144.47;76.86
64076;BME280;50327;51.328;12.324;2023-01-29T15:36:45;53106.34;;;-144.47;77.23
64076;BME280;50327;51.328;12.324;2023-01-29T15:41:36;53132.19;;;-144.47;77.28
64076;BME280;50327;51.328;12.324;2023-01-29T15:44:02;53142.09;;;-144.47;77.43
64076;BME280;50327;51.328;12.324;2023-01-29T15:46:33;53128.22;;;-144.47;77.74
64076;BME280;50327;51.328;12.324;2023-01-29T15:49:05;53158.00;;;-144.47;77.69
64076;BME280;50327;51.328;12.324;2023-01-29T15:51:32;53122.25;;;-144.47;77.84
64076;BME280;50327;51.328;12.324;2023-01-29T15:54:06;53106.34;;;-144.47;77.77